Time;durP1;ratioP1;P1;durP2;ratioP2;P2;SDS_P1;SDS_P2;PMS_P1;PMS_P2;Temp;Humidity;BMP_temperature;BMP_pressure;BME280_temperature;BME280_humidity;BME280_pressure;Samples;Min_cycle;Max_cycle;Signal;HPM_P1;HPM_P2
2022/12/08 00:01:27;;;;;;;25.92;15.73;;;;;;;;;;5073653;28;20657;-65
2022/12/08 00:03:55;;;;;;;19.40;15.80;;;;;;;;;;5074216;28;20196;-64
2022/12/08 00:09:23;;;;;;;20.35;15.23;;;;;;;;;;5073561;28;20230;-64
2022/12/08 00:11:55;;;;;;;24.88;16.80;;;;;;;;;;5074106;28;20238;-64
2022/12/08 00:14:26;;;;;;;20.67;16.95;;;;;;;;;;5073317;28;20655;-64
2022/12/08 00:16:54;;;;;;;28.77;17.45;;;;;;;;;;5073437;28;20224;-65
2022/12/08 00:19:21;;;;;;;26.58;15.52;;;;;;;;;;5073273;28;20197;-65
2022/12/08 00:21:48;;;;;;;21.75;15.70;;;;;;;;;;5073376;28;20665;-65
2022/12/08 00:24:17;;;;;;;21.35;15.27;;;;;;;;;;5073227;28;20284;-64
2022/12/08 00:26:44;;;;;;;24.13;17.40;;;;;;;;;;5073828;28;20220;-64
2022/12/08 00:29:12;;;;;;;21.08;15.80;;;;;;;;;;5073218;28;20293;-65
2022/12/08 00:31:39;;;;;;;21.67;16.50;;;;;;;;;;5073568;28;20203;-64
2022/12/08 00:34:06;;;;;;;24.27;17.20;;;;;;;;;;5073246;28;20232;-65
2022/12/08 00:36:34;;;;;;;28.15;17.52;;;;;;;;;;5073161;28;20290;-64
2022/12/08 00:39:01;;;;;;;23.35;16.17;;;;;;;;;;5073218;28;20200;-65
2022/12/08 00:44:17;;;;;;;22.48;16.85;;;;;;;;;;5073259;28;20184;-64
2022/12/08 00:46:45;;;;;;;25.83;17.75;;;;;;;;;;5073263;28;20564;-64
2022/12/08 00:49:12;;;;;;;23.55;18.02;;;;;;;;;;5073095;28;20197;-64
2022/12/08 00:51:39;;;;;;;22.23;15.63;;;;;;;;;;5073357;28;20228;-64
2022/12/08 00:54:07;;;;;;;23.00;17.10;;;;;;;;;;5073042;28;20200;-64
2022/12/08 00:56:36;;;;;;;24.02;16.02;;;;;;;;;;5073330;28;20212;-64
2022/12/08 00:59:04;;;;;;;34.67;17.92;;;;;;;;;;5073621;28;20197;-66
2022/12/08 01:01:31;;;;;;;29.30;17.70;;;;;;;;;;5073038;28;20201;-64
2022/12/08 01:03:58;;;;;;;19.17;16.05;;;;;;;;;;5072931;28;20202;-64
2022/12/08 01:06:25;;;;;;;23.58;16.67;;;;;;;;;;5073063;28;20224;-65
2022/12/08 01:08:53;;;;;;;27.45;17.60;;;;;;;;;;5073435;28;20203;-64
2022/12/08 01:11:20;;;;;;;23.83;16.65;;;;;;;;;;5073201;28;20196;-65
2022/12/08 01:13:49;;;;;;;24.63;16.80;;;;;;;;;;5073539;28;20291;-64
2022/12/08 01:16:20;;;;;;;22.70;17.48;;;;;;;;;;5072779;28;20212;-64
2022/12/08 01:18:47;;;;;;;27.05;17.60;;;;;;;;;;5073566;28;20521;-64
2022/12/08 01:21:14;;;;;;;22.35;17.33;;;;;;;;;;5073156;28;20200;-64
2022/12/08 01:23:41;;;;;;;21.40;16.38;;;;;;;;;;5072962;28;20646;-64
2022/12/08 01:26:09;;;;;;;21.55;15.70;;;;;;;;;;5072968;28;20229;-64
2022/12/08 01:28:36;;;;;;;24.17;16.98;;;;;;;;;;5073157;28;20554;-64
2022/12/08 01:31:05;;;;;;;25.02;16.70;;;;;;;;;;5072864;28;20204;-64
2022/12/08 01:33:32;;;;;;;23.30;16.02;;;;;;;;;;5072928;28;20591;-65
2022/12/08 01:36:04;;;;;;;23.23;17.55;;;;;;;;;;5074309;28;20209;-64
2022/12/08 01:38:31;;;;;;;20.35;16.85;;;;;;;;;;5076425;28;20219;-64
2022/12/08 01:40:59;;;;;;;21.63;15.68;;;;;;;;;;5076877;28;20550;-65
2022/12/08 01:43:26;;;;;;;21.55;16.35;;;;;;;;;;5076853;28;20236;-64
2022/12/08 01:45:53;;;;;;;23.08;13.68;;;;;;;;;;5076397;28;20584;-64
2022/12/08 01:48:24;;;;;;;21.92;15.52;;;;;;;;;;5077230;28;20238;-64
2022/12/08 01:50:52;;;;;;;20.80;15.32;;;;;;;;;;5076115;28;20182;-65
2022/12/08 01:53:20;;;;;;;23.83;16.90;;;;;;;;;;5076020;28;20202;-65
2022/12/08 01:55:49;;;;;;;20.90;14.70;;;;;;;;;;5076333;28;20554;-64
2022/12/08 01:58:19;;;;;;;22.85;16.45;;;;;;;;;;5076034;28;20232;-65
2022/12/08 02:00:46;;;;;;;23.15;15.82;;;;;;;;;;5076821;28;20226;-64
2022/12/08 02:03:16;;;;;;;17.85;14.40;;;;;;;;;;5075900;28;20198;-64
2022/12/08 02:05:44;;;;;;;15.50;13.07;;;;;;;;;;5075729;28;20217;-65
2022/12/08 02:08:13;;;;;;;19.88;14.88;;;;;;;;;;5075818;28;20208;-64
2022/12/08 02:10:41;;;;;;;15.88;13.93;;;;;;;;;;5076206;28;20642;-64
2022/12/08 02:13:10;;;;;;;22.00;15.00;;;;;;;;;;5076103;28;20196;-64
2022/12/08 02:15:39;;;;;;;18.58;14.48;;;;;;;;;;5075647;28;20200;-64
2022/12/08 02:18:13;;;;;;;24.13;15.60;;;;;;;;;;5075967;28;20557;-64
2022/12/08 02:20:49;;;;;;;19.20;15.32;;;;;;;;;;5076267;28;20552;-64
2022/12/08 02:23:20;;;;;;;19.70;15.13;;;;;;;;;;5075912;28;20193;-64
2022/12/08 02:25:59;;;;;;;18.50;16.13;;;;;;;;;;5075912;28;20213;-64
2022/12/08 02:28:38;;;;;;;18.13;16.23;;;;;;;;;;5075957;28;20547;-64
2022/12/08 02:31:10;;;;;;;18.25;14.88;;;;;;;;;;5075443;28;20194;-65
2022/12/08 02:34:05;;;;;;;16.70;14.88;;;;;;;;;;5075812;28;20184;-64
2022/12/08 02:36:36;;;;;;;18.27;14.68;;;;;;;;;;5075809;28;20200;-64
2022/12/08 02:39:05;;;;;;;21.10;14.70;;;;;;;;;;5075924;28;20277;-65
2022/12/08 02:41:37;;;;;;;17.00;14.05;;;;;;;;;;5075257;28;20238;-64
2022/12/08 02:44:07;;;;;;;19.20;15.80;;;;;;;;;;5076049;28;20184;-65
2022/12/08 02:46:37;;;;;;;27.52;15.32;;;;;;;;;;5075460;28;20570;-64
2022/12/08 02:49:06;;;;;;;17.70;15.18;;;;;;;;;;5075441;28;20231;-64
2022/12/08 02:51:33;;;;;;;18.67;16.30;;;;;;;;;;5075234;28;20282;-65
2022/12/08 02:54:01;;;;;;;19.60;14.98;;;;;;;;;;5075747;28;20196;-64
2022/12/08 02:56:38;;;;;;;22.42;14.98;;;;;;;;;;5074842;28;20196;-64
2022/12/08 02:59:12;;;;;;;20.70;15.32;;;;;;;;;;5074967;28;20183;-64
2022/12/08 03:01:45;;;;;;;16.25;14.65;;;;;;;;;;5075169;28;20535;-64
2022/12/08 03:04:19;;;;;;;22.58;15.15;;;;;;;;;;5075218;28;20278;-64
2022/12/08 03:06:49;;;;;;;22.58;15.63;;;;;;;;;;5074630;28;20209;-65
2022/12/08 03:09:20;;;;;;;20.30;14.85;;;;;;;;;;5075281;28;20546;-65
2022/12/08 03:11:50;;;;;;;17.60;15.80;;;;;;;;;;5074625;28;20206;-64
2022/12/08 03:14:18;;;;;;;19.63;15.70;;;;;;;;;;5075349;28;20197;-65
2022/12/08 03:16:48;;;;;;;18.75;15.43;;;;;;;;;;5074435;28;20194;-65
2022/12/08 03:19:18;;;;;;;20.85;16.10;;;;;;;;;;5074461;28;20679;-64
2022/12/08 03:21:47;;;;;;;19.55;14.93;;;;;;;;;;5074877;28;20185;-65
2022/12/08 03:24:16;;;;;;;21.42;16.55;;;;;;;;;;5074965;28;20195;-64
2022/12/08 03:26:46;;;;;;;21.83;16.88;;;;;;;;;;5074464;28;20598;-64
2022/12/08 03:29:14;;;;;;;21.05;16.05;;;;;;;;;;5074970;28;20184;-64
2022/12/08 03:31:45;;;;;;;22.45;17.65;;;;;;;;;;5074819;28;20754;-64
2022/12/08 03:34:13;;;;;;;20.60;18.38;;;;;;;;;;5074611;28;20180;-64
2022/12/08 03:36:41;;;;;;;26.08;19.50;;;;;;;;;;5074577;28;20208;-64
2022/12/08 03:39:09;;;;;;;24.92;18.52;;;;;;;;;;5074377;28;20196;-64
2022/12/08 03:41:36;;;;;;;24.40;18.60;;;;;;;;;;5074315;28;20219;-64
2022/12/08 03:44:03;;;;;;;22.70;19.52;;;;;;;;;;5074009;28;20217;-64
2022/12/08 03:46:31;;;;;;;23.20;18.52;;;;;;;;;;5074199;28;20224;-65
2022/12/08 03:48:58;;;;;;;22.67;18.50;;;;;;;;;;5074121;28;20230;-64
2022/12/08 03:51:26;;;;;;;29.30;19.48;;;;;;;;;;5074193;28;20196;-64
2022/12/08 03:53:54;;;;;;;24.90;18.27;;;;;;;;;;5074024;28;20207;-64
2022/12/08 03:56:25;;;;;;;26.15;18.80;;;;;;;;;;5074024;28;20205;-64
2022/12/08 03:58:52;;;;;;;22.17;18.83;;;;;;;;;;5073055;28;20196;-64
2022/12/08 04:01:20;;;;;;;25.10;18.73;;;;;;;;;;5073725;28;20192;-64
2022/12/08 04:03:47;;;;;;;20.95;17.95;;;;;;;;;;5073858;28;20196;-64
2022/12/08 04:06:14;;;;;;;22.00;17.92;;;;;;;;;;5073542;28;20220;-65
2022/12/08 04:08:41;;;;;;;27.00;19.23;;;;;;;;;;5073867;28;20289;-64
2022/12/08 04:11:10;;;;;;;24.05;18.13;;;;;;;;;;5073838;28;20676;-64
2022/12/08 04:13:40;;;;;;;24.85;18.30;;;;;;;;;;5073925;28;20535;-65
2022/12/08 04:16:07;;;;;;;23.80;17.08;;;;;;;;;;5073473;28;20653;-65
2022/12/08 04:18:35;;;;;;;21.85;17.42;;;;;;;;;;5073696;28;20197;-66
2022/12/08 04:21:03;;;;;;;26.60;17.30;;;;;;;;;;5073706;28;20196;-65
2022/12/08 04:23:30;;;;;;;22.20;17.35;;;;;;;;;;5073735;28;20196;-66
2022/12/08 04:25:57;;;;;;;23.25;17.92;;;;;;;;;;5073326;28;20199;-66
2022/12/08 04:28:28;;;;;;;23.80;17.98;;;;;;;;;;5073219;28;20200;-66
2022/12/08 04:30:55;;;;;;;21.23;17.50;;;;;;;;;;5074005;28;20653;-66
2022/12/08 04:33:22;;;;;;;21.83;17.23;;;;;;;;;;5073938;28;20205;-66
2022/12/08 04:35:50;;;;;;;24.75;19.38;;;;;;;;;;5074034;28;20198;-66
2022/12/08 04:38:17;;;;;;;25.73;19.80;;;;;;;;;;5073690;28;20207;-66
2022/12/08 04:40:44;;;;;;;23.27;19.17;;;;;;;;;;5073546;28;20201;-65
2022/12/08 04:43:12;;;;;;;26.77;19.50;;;;;;;;;;5073287;28;20233;-65
2022/12/08 04:45:41;;;;;;;28.00;19.15;;;;;;;;;;5073424;28;20557;-65
2022/12/08 04:48:08;;;;;;;31.05;19.85;;;;;;;;;;5073303;28;20221;-66
2022/12/08 04:50:36;;;;;;;25.83;19.80;;;;;;;;;;5073101;28;20206;-65
2022/12/08 04:53:03;;;;;;;24.23;19.25;;;;;;;;;;5073669;28;20195;-65
2022/12/08 04:55:30;;;;;;;25.65;19.13;;;;;;;;;;5073277;28;20195;-66
2022/12/08 04:57:57;;;;;;;29.00;20.95;;;;;;;;;;5071878;28;20653;-65
2022/12/08 05:00:24;;;;;;;31.58;22.15;;;;;;;;;;5073166;28;20286;-65
2022/12/08 05:02:53;;;;;;;29.48;20.38;;;;;;;;;;5072276;28;20205;-65
2022/12/08 05:05:20;;;;;;;37.22;22.67;;;;;;;;;;5072948;28;20619;-65
2022/12/08 05:07:47;;;;;;;36.47;23.15;;;;;;;;;;5072343;28;20573;-65
2022/12/08 05:10:14;;;;;;;27.75;21.55;;;;;;;;;;5074507;28;20202;-65
2022/12/08 05:12:42;;;;;;;28.08;20.75;;;;;;;;;;5076153;28;20205;-65
2022/12/08 05:15:09;;;;;;;34.00;20.52;;;;;;;;;;5076356;28;20197;-65
2022/12/08 05:17:36;;;;;;;32.83;20.88;;;;;;;;;;5076346;28;20577;-65
2022/12/08 05:20:06;;;;;;;32.58;20.27;;;;;;;;;;5076517;28;20207;-65
2022/12/08 05:22:33;;;;;;;30.45;19.90;;;;;;;;;;5076396;28;20530;-65
2022/12/08 05:25:00;;;;;;;28.15;21.52;;;;;;;;;;5080112;28;20273;-66
2022/12/08 05:27:27;;;;;;;37.88;22.13;;;;;;;;;;5096481;28;20214;-66
2022/12/08 05:29:54;;;;;;;26.42;19.63;;;;;;;;;;5096653;28;20673;-65
2022/12/08 05:32:22;;;;;;;33.85;21.58;;;;;;;;;;5096701;28;20205;-65
2022/12/08 05:34:49;;;;;;;33.40;22.35;;;;;;;;;;5096483;28;20198;-65
2022/12/08 05:37:17;;;;;;;32.90;21.55;;;;;;;;;;5097140;28;20204;-66
2022/12/08 05:39:44;;;;;;;32.90;21.35;;;;;;;;;;5096678;28;20287;-66
2022/12/08 05:42:12;;;;;;;32.55;23.10;;;;;;;;;;5096016;28;20230;-65
2022/12/08 05:44:39;;;;;;;32.45;19.95;;;;;;;;;;5096792;28;20550;-65
2022/12/08 05:47:06;;;;;;;32.75;22.35;;;;;;;;;;5095815;28;20530;-65
2022/12/08 05:49:33;;;;;;;32.50;21.75;;;;;;;;;;5096769;28;20199;-66
2022/12/08 05:52:00;;;;;;;32.78;22.55;;;;;;;;;;5096644;28;20554;-66
2022/12/08 05:54:29;;;;;;;37.17;22.85;;;;;;;;;;5096732;28;20217;-65
2022/12/08 05:56:56;;;;;;;31.92;20.98;;;;;;;;;;5096313;28;20546;-66
2022/12/08 05:59:23;;;;;;;33.85;21.27;;;;;;;;;;5096331;28;20197;-65
2022/12/08 06:01:51;;;;;;;32.53;22.15;;;;;;;;;;5096189;28;20195;-66
2022/12/08 06:04:18;;;;;;;27.23;19.88;;;;;;;;;;5094307;28;20232;-66
2022/12/08 06:06:45;;;;;;;32.38;19.70;;;;;;;;;;5094226;28;20698;-66
2022/12/08 06:09:12;;;;;;;30.15;21.27;;;;;;;;;;5095484;28;20230;-66
2022/12/08 06:11:41;;;;;;;28.20;18.45;;;;;;;;;;5096746;28;20210;-65
2022/12/08 06:14:10;;;;;;;30.52;20.00;;;;;;;;;;5065416;28;20222;-73
2022/12/08 06:16:38;;;;;;;30.67;18.35;;;;;;;;;;5055298;28;20295;-66
2022/12/08 06:19:05;;;;;;;24.85;18.13;;;;;;;;;;5055724;28;20286;-65
2022/12/08 06:21:32;;;;;;;22.95;17.33;;;;;;;;;;5055258;28;20206;-66
2022/12/08 06:23:59;;;;;;;24.98;16.73;;;;;;;;;;5055554;28;20207;-66
2022/12/08 06:26:27;;;;;;;25.73;17.17;;;;;;;;;;5055490;28;20675;-66
2022/12/08 06:28:56;;;;;;;27.95;18.60;;;;;;;;;;5055410;28;20768;-66
2022/12/08 06:31:24;;;;;;;26.38;16.33;;;;;;;;;;5055794;28;20205;-66
2022/12/08 06:33:51;;;;;;;25.73;16.38;;;;;;;;;;5055407;28;20201;-65
2022/12/08 06:36:20;;;;;;;19.40;13.48;;;;;;;;;;5055639;28;20227;-66
2022/12/08 06:38:48;;;;;;;24.23;15.68;;;;;;;;;;5055863;28;20228;-66
2022/12/08 06:41:15;;;;;;;24.05;17.05;;;;;;;;;;5055303;28;20211;-65
2022/12/08 06:43:43;;;;;;;25.50;16.35;;;;;;;;;;5056367;28;20553;-65
2022/12/08 06:46:12;;;;;;;25.20;16.42;;;;;;;;;;5055415;28;20287;-65
2022/12/08 06:48:39;;;;;;;24.20;16.23;;;;;;;;;;5055880;28;20221;-65
2022/12/08 06:51:07;;;;;;;22.65;14.93;;;;;;;;;;5055438;28;20561;-65
2022/12/08 06:53:34;;;;;;;25.27;16.27;;;;;;;;;;5055913;28;20204;-65
2022/12/08 06:56:02;;;;;;;21.63;16.25;;;;;;;;;;5055230;28;20199;-66
2022/12/08 06:58:29;;;;;;;26.77;16.67;;;;;;;;;;5054868;28;20207;-66
2022/12/08 07:00:56;;;;;;;25.23;18.85;;;;;;;;;;5055233;28;20202;-66
2022/12/08 07:03:25;;;;;;;24.20;17.60;;;;;;;;;;5054837;28;20295;-66
2022/12/08 07:05:56;;;;;;;22.15;16.00;;;;;;;;;;5055142;28;20294;-65
2022/12/08 07:08:23;;;;;;;24.05;15.88;;;;;;;;;;5055226;28;20243;-65
2022/12/08 07:10:50;;;;;;;26.13;17.23;;;;;;;;;;5054509;28;20205;-66
2022/12/08 07:13:18;;;;;;;21.92;15.63;;;;;;;;;;5054669;28;20659;-65
2022/12/08 07:15:45;;;;;;;25.13;17.27;;;;;;;;;;5054478;28;20204;-66
2022/12/08 07:18:12;;;;;;;26.30;17.05;;;;;;;;;;5054559;28;20201;-65
2022/12/08 07:20:40;;;;;;;24.52;16.60;;;;;;;;;;5054753;28;20555;-65
2022/12/08 07:23:08;;;;;;;22.50;15.82;;;;;;;;;;5054412;28;20197;-66
2022/12/08 07:25:35;;;;;;;20.98;16.25;;;;;;;;;;5054652;28;20558;-65
2022/12/08 07:28:07;;;;;;;23.23;15.27;;;;;;;;;;5054663;28;20217;-66
2022/12/08 07:30:35;;;;;;;20.10;15.15;;;;;;;;;;5054633;28;20186;-65
2022/12/08 07:33:03;;;;;;;23.17;16.52;;;;;;;;;;5053289;28;20198;-65
2022/12/08 07:35:30;;;;;;;20.90;14.93;;;;;;;;;;5054058;28;20694;-65
2022/12/08 07:37:59;;;;;;;22.85;15.40;;;;;;;;;;5054500;28;20503;-66
2022/12/08 07:40:26;;;;;;;21.90;15.30;;;;;;;;;;5054174;28;20194;-66
2022/12/08 07:42:53;;;;;;;21.13;16.17;;;;;;;;;;5054292;28;20231;-66
2022/12/08 07:45:20;;;;;;;21.02;13.20;;;;;;;;;;5054387;28;20629;-66
2022/12/08 07:47:47;;;;;;;19.25;12.82;;;;;;;;;;5054381;28;20217;-66
2022/12/08 07:50:15;;;;;;;18.30;13.52;;;;;;;;;;5054250;28;20201;-66
2022/12/08 07:52:42;;;;;;;15.23;12.30;;;;;;;;;;5055083;28;20290;-66
2022/12/08 07:55:11;;;;;;;20.42;12.20;;;;;;;;;;5054167;28;20291;-66
2022/12/08 07:57:38;;;;;;;12.50;9.77;;;;;;;;;;5054146;28;20288;-66
2022/12/08 08:00:06;;;;;;;14.82;10.25;;;;;;;;;;5054011;28;20279;-66
2022/12/08 08:02:33;;;;;;;14.38;12.38;;;;;;;;;;5053768;28;20287;-66
2022/12/08 08:05:00;;;;;;;17.95;12.25;;;;;;;;;;5053683;28;20207;-66
2022/12/08 08:07:27;;;;;;;11.43;9.10;;;;;;;;;;5053758;28;20344;-67
2022/12/08 08:09:54;;;;;;;14.93;11.73;;;;;;;;;;5053938;28;20204;-67
2022/12/08 08:12:23;;;;;;;15.13;12.98;;;;;;;;;;5053961;28;20208;-66
2022/12/08 08:14:50;;;;;;;15.60;10.90;;;;;;;;;;5054141;28;20555;-66
2022/12/08 08:17:17;;;;;;;14.77;11.77;;;;;;;;;;5053854;28;20202;-66
2022/12/08 08:19:46;;;;;;;15.43;10.85;;;;;;;;;;5053833;28;20649;-67
2022/12/08 08:22:13;;;;;;;14.65;12.25;;;;;;;;;;5053801;28;20207;-67
2022/12/08 08:24:40;;;;;;;17.42;12.02;;;;;;;;;;5053782;28;20219;-66
2022/12/08 08:27:08;;;;;;;18.52;10.40;;;;;;;;;;5053474;28;20194;-66
2022/12/08 08:29:36;;;;;;;10.60;8.32;;;;;;;;;;5054527;28;20211;-66
2022/12/08 08:32:03;;;;;;;9.88;7.78;;;;;;;;;;5053403;28;20729;-66
2022/12/08 08:34:31;;;;;;;13.35;9.70;;;;;;;;;;5053270;28;20209;-67
2022/12/08 08:36:58;;;;;;;10.82;8.90;;;;;;;;;;5053494;28;20636;-66
2022/12/08 08:39:25;;;;;;;11.70;9.30;;;;;;;;;;5053180;28;20208;-66
2022/12/08 08:41:52;;;;;;;12.07;8.80;;;;;;;;;;5053378;28;20229;-66
2022/12/08 08:44:25;;;;;;;11.02;8.82;;;;;;;;;;5053166;28;20196;-66
2022/12/08 08:46:53;;;;;;;10.93;8.65;;;;;;;;;;5053412;28;20191;-66
2022/12/08 08:49:20;;;;;;;9.70;8.30;;;;;;;;;;5053735;28;20231;-66
2022/12/08 08:51:48;;;;;;;9.75;7.65;;;;;;;;;;5053038;28;20204;-67
2022/12/08 08:54:15;;;;;;;9.40;7.65;;;;;;;;;;5053450;28;20579;-66
2022/12/08 08:56:42;;;;;;;9.80;7.55;;;;;;;;;;5053117;28;20192;-67
2022/12/08 08:59:10;;;;;;;7.72;6.90;;;;;;;;;;5053280;28;20292;-66
2022/12/08 09:01:37;;;;;;;8.23;6.45;;;;;;;;;;5052894;28;20655;-66
2022/12/08 09:04:06;;;;;;;8.07;6.75;;;;;;;;;;5084028;28;20194;-66
2022/12/08 09:06:33;;;;;;;7.03;5.80;;;;;;;;;;5092896;28;20764;-66
2022/12/08 09:09:00;;;;;;;6.97;6.25;;;;;;;;;;5093366;28;20325;-66
2022/12/08 09:11:28;;;;;;;8.23;6.80;;;;;;;;;;5093402;28;20195;-66
2022/12/08 09:13:55;;;;;;;9.65;7.32;;;;;;;;;;5093244;28;20282;-66
2022/12/08 09:16:23;;;;;;;9.23;6.63;;;;;;;;;;5093195;28;20286;-66
2022/12/08 09:18:50;;;;;;;8.30;6.90;;;;;;;;;;5093039;28;20670;-67
2022/12/08 09:21:21;;;;;;;8.88;7.45;;;;;;;;;;5093324;28;20657;-66
2022/12/08 09:23:48;;;;;;;9.57;7.90;;;;;;;;;;5093408;28;20232;-67
2022/12/08 09:26:15;;;;;;;10.13;8.00;;;;;;;;;;5092956;28;20299;-66
2022/12/08 09:28:45;;;;;;;9.73;6.22;;;;;;;;;;5093274;28;20308;-67
2022/12/08 09:31:12;;;;;;;10.13;7.50;;;;;;;;;;5093340;28;20201;-66
2022/12/08 09:33:40;;;;;;;10.82;8.55;;;;;;;;;;5093101;28;20199;-67
2022/12/08 09:36:07;;;;;;;8.60;7.53;;;;;;;;;;5092859;28;20201;-67
2022/12/08 09:38:36;;;;;;;11.30;8.00;;;;;;;;;;5092770;28;20200;-67
2022/12/08 09:41:04;;;;;;;8.45;6.90;;;;;;;;;;5093275;28;20196;-67
2022/12/08 09:43:41;;;;;;;10.43;8.55;;;;;;;;;;5093050;28;20535;-67
2022/12/08 09:46:10;;;;;;;12.60;7.45;;;;;;;;;;5093658;28;20274;-67
2022/12/08 09:48:40;;;;;;;8.25;6.57;;;;;;;;;;5093021;28;20223;-67
2022/12/08 09:51:09;;;;;;;10.43;6.90;;;;;;;;;;5092831;28;20192;-67
2022/12/08 09:53:40;;;;;;;9.65;7.75;;;;;;;;;;5093137;28;20558;-67
2022/12/08 09:56:09;;;;;;;8.00;6.03;;;;;;;;;;5093251;28;20214;-67
2022/12/08 09:58:44;;;;;;;7.68;6.18;;;;;;;;;;5096639;28;20203;-67
2022/12/08 10:01:12;;;;;;;11.13;7.07;;;;;;;;;;5097088;28;20262;-68
2022/12/08 10:03:41;;;;;;;7.93;7.03;;;;;;;;;;5096544;28;20282;-67
2022/12/08 10:06:11;;;;;;;9.63;7.30;;;;;;;;;;5097221;28;20196;-66
2022/12/08 10:08:42;;;;;;;9.60;6.32;;;;;;;;;;5096183;28;20298;-67
2022/12/08 10:11:14;;;;;;;10.73;7.43;;;;;;;;;;5096169;28;20286;-66
2022/12/08 10:13:47;;;;;;;10.35;6.90;;;;;;;;;;5096884;28;20180;-67
2022/12/08 10:16:20;;;;;;;11.20;7.68;;;;;;;;;;5097159;28;20203;-67
2022/12/08 10:18:53;;;;;;;10.38;8.32;;;;;;;;;;5096503;28;20208;-67
2022/12/08 10:21:24;;;;;;;8.65;7.75;;;;;;;;;;5096421;28;20185;-67
2022/12/08 10:23:54;;;;;;;10.60;7.15;;;;;;;;;;5096288;28;20186;-68
2022/12/08 10:26:22;;;;;;;8.32;7.43;;;;;;;;;;5095980;28;20191;-67
2022/12/08 10:28:49;;;;;;;8.18;6.35;;;;;;;;;;5096054;28;20216;-66
2022/12/08 10:31:18;;;;;;;7.43;6.68;;;;;;;;;;5096106;28;20303;-67
2022/12/08 10:33:46;;;;;;;8.63;6.60;;;;;;;;;;5095983;28;20199;-67
2022/12/08 10:36:13;;;;;;;9.10;7.18;;;;;;;;;;5096187;28;20203;-67
2022/12/08 10:38:41;;;;;;;9.07;7.60;;;;;;;;;;5095845;28;20200;-67
2022/12/08 10:41:13;;;;;;;9.23;7.10;;;;;;;;;;5095815;28;20196;-67
2022/12/08 10:43:43;;;;;;;9.82;6.60;;;;;;;;;;5095504;28;20271;-66
2022/12/08 10:46:11;;;;;;;9.30;7.07;;;;;;;;;;5096040;28;20270;-66
2022/12/08 10:48:47;;;;;;;7.70;5.85;;;;;;;;;;5095799;28;20230;-67
2022/12/08 10:51:22;;;;;;;8.20;6.10;;;;;;;;;;5095730;28;20262;-67
2022/12/08 10:53:50;;;;;;;7.25;6.15;;;;;;;;;;5095359;28;20190;-66
2022/12/08 10:56:18;;;;;;;7.22;6.20;;;;;;;;;;5096013;28;20195;-67
2022/12/08 10:58:46;;;;;;;8.20;6.82;;;;;;;;;;5095177;28;20281;-67
2022/12/08 11:01:15;;;;;;;6.75;6.05;;;;;;;;;;5095486;28;20652;-67
2022/12/08 11:03:45;;;;;;;7.22;6.43;;;;;;;;;;5095704;28;20303;-67
2022/12/08 11:06:15;;;;;;;11.13;5.78;;;;;;;;;;5095729;28;20191;-66
2022/12/08 11:08:52;;;;;;;7.63;6.63;;;;;;;;;;5094890;28;20311;-66
2022/12/08 11:11:22;;;;;;;7.95;6.55;;;;;;;;;;5095374;28;20286;-67
2022/12/08 11:13:51;;;;;;;8.90;6.82;;;;;;;;;;5095173;28;20273;-67
2022/12/08 11:16:20;;;;;;;7.78;5.55;;;;;;;;;;5094949;28;20195;-67
2022/12/08 11:18:48;;;;;;;6.75;6.05;;;;;;;;;;5095074;28;20196;-68
2022/12/08 11:21:16;;;;;;;5.70;5.10;;;;;;;;;;5095161;28;20199;-67
2022/12/08 11:23:47;;;;;;;6.05;4.80;;;;;;;;;;5095307;28;20207;-67
2022/12/08 11:26:19;;;;;;;5.75;4.95;;;;;;;;;;5094822;28;20192;-69
2022/12/08 11:28:47;;;;;;;7.15;4.88;;;;;;;;;;5094942;28;20688;-68
2022/12/08 11:31:20;;;;;;;7.32;5.63;;;;;;;;;;5095133;28;20224;-67
2022/12/08 11:33:48;;;;;;;7.03;5.32;;;;;;;;;;5095249;28;20216;-66
2022/12/08 11:36:16;;;;;;;6.40;5.70;;;;;;;;;;5094923;28;20223;-66
2022/12/08 11:38:45;;;;;;;5.57;4.82;;;;;;;;;;5094700;28;20206;-67
2022/12/08 11:41:14;;;;;;;5.75;5.05;;;;;;;;;;5094185;28;20675;-67
2022/12/08 11:43:46;;;;;;;8.30;5.93;;;;;;;;;;5094664;28;20195;-67
2022/12/08 11:46:18;;;;;;;6.97;6.25;;;;;;;;;;5095038;28;20295;-67
2022/12/08 11:48:49;;;;;;;6.57;5.88;;;;;;;;;;5094586;28;20218;-67
2022/12/08 11:51:18;;;;;;;8.15;6.85;;;;;;;;;;5094139;28;20215;-67
2022/12/08 11:53:50;;;;;;;8.65;6.90;;;;;;;;;;5094760;28;20251;-68
2022/12/08 11:56:19;;;;;;;6.95;6.30;;;;;;;;;;5094243;28;20654;-67
2022/12/08 11:58:49;;;;;;;6.10;5.50;;;;;;;;;;5093904;28;20201;-66
2022/12/08 12:01:20;;;;;;;8.63;6.38;;;;;;;;;;5094019;28;20202;-66
2022/12/08 12:03:50;;;;;;;7.68;6.30;;;;;;;;;;5094212;28;20252;-66
2022/12/08 12:06:29;;;;;;;8.80;7.90;;;;;;;;;;5094200;28;20195;-66
2022/12/08 12:09:05;;;;;;;7.55;6.68;;;;;;;;;;5093914;28;20210;-67
2022/12/08 12:14:31;;;;;;;8.95;7.07;;;;;;;;;;5093803;28;20226;-66
2022/12/08 12:17:03;;;;;;;8.48;6.80;;;;;;;;;;5093845;28;20188;-66
2022/12/08 12:19:33;;;;;;;11.95;6.97;;;;;;;;;;5093757;28;20189;-67
2022/12/08 12:22:05;;;;;;;8.25;6.80;;;;;;;;;;5093777;28;20184;-67
2022/12/08 12:24:34;;;;;;;8.70;7.18;;;;;;;;;;5093951;28;20188;-66
2022/12/08 12:27:06;;;;;;;7.55;6.55;;;;;;;;;;5093606;28;20200;-66
2022/12/08 12:29:35;;;;;;;7.53;6.65;;;;;;;;;;5093528;28;20211;-66
2022/12/08 12:32:05;;;;;;;10.40;8.13;;;;;;;;;;5093764;28;20192;-67
2022/12/08 12:34:33;;;;;;;13.10;7.82;;;;;;;;;;5093678;28;20230;-66
2022/12/08 12:37:06;;;;;;;7.95;6.90;;;;;;;;;;5093606;28;20196;-67
2022/12/08 12:39:35;;;;;;;10.55;7.40;;;;;;;;;;5094137;28;20192;-66
2022/12/08 12:42:03;;;;;;;7.55;6.78;;;;;;;;;;5093541;28;20232;-66
2022/12/08 12:44:43;;;;;;;9.98;6.78;;;;;;;;;;5093672;28;20655;-66
2022/12/08 12:47:35;;;;;;;7.97;6.70;;;;;;;;;;5094225;28;20195;-67
2022/12/08 12:50:07;;;;;;;8.73;6.32;;;;;;;;;;5093325;28;20302;-66
2022/12/08 12:52:37;;;;;;;9.07;7.40;;;;;;;;;;5093987;28;20191;-66
2022/12/08 12:55:20;;;;;;;7.70;6.63;;;;;;;;;;5093722;28;20565;-66
2022/12/08 12:57:51;;;;;;;8.70;5.28;;;;;;;;;;5093980;28;20234;-66
2022/12/08 13:00:19;;;;;;;6.75;6.03;;;;;;;;;;5093145;28;20283;-66
2022/12/08 13:02:48;;;;;;;6.13;5.50;;;;;;;;;;5093525;28;20283;-66
2022/12/08 13:05:17;;;;;;;6.45;5.85;;;;;;;;;;5093464;28;20200;-66
2022/12/08 13:07:46;;;;;;;10.15;6.70;;;;;;;;;;5093207;28;20197;-65
2022/12/08 13:10:18;;;;;;;7.13;6.43;;;;;;;;;;5093159;28;20220;-65
2022/12/08 13:12:46;;;;;;;7.10;6.40;;;;;;;;;;5093346;28;20634;-65
2022/12/08 13:15:18;;;;;;;6.22;5.60;;;;;;;;;;5093146;28;20656;-66
2022/12/08 13:17:47;;;;;;;6.60;5.50;;;;;;;;;;5093536;28;20195;-66
2022/12/08 13:20:21;;;;;;;9.13;5.10;;;;;;;;;;5093275;28;20292;-65
2022/12/08 13:23:05;;;;;;;5.93;5.32;;;;;;;;;;5093253;28;20267;-65
2022/12/08 13:25:46;;;;;;;6.28;5.60;;;;;;;;;;5082964;28;20201;-66
2022/12/08 13:28:17;;;;;;;7.43;5.47;;;;;;;;;;5092948;28;20231;-66
2022/12/08 13:30:45;;;;;;;5.80;5.10;;;;;;;;;;5093381;28;20195;-65
2022/12/08 13:33:16;;;;;;;6.68;5.57;;;;;;;;;;5097021;28;20195;-66
2022/12/08 13:35:47;;;;;;;5.50;4.47;;;;;;;;;;5097372;28;20188;-65
2022/12/08 13:38:16;;;;;;;6.88;5.50;;;;;;;;;;5097168;28;20185;-65
2022/12/08 13:40:44;;;;;;;6.18;5.25;;;;;;;;;;5097075;28;20606;-65
2022/12/08 13:43:17;;;;;;;6.57;5.20;;;;;;;;;;5097601;28;20289;-65
2022/12/08 13:45:44;;;;;;;5.72;4.57;;;;;;;;;;5096656;28;20671;-66
2022/12/08 13:48:14;;;;;;;6.53;4.93;;;;;;;;;;5096576;28;20196;-65
2022/12/08 13:50:43;;;;;;;5.95;5.10;;;;;;;;;;5096675;28;20221;-65
2022/12/08 13:53:14;;;;;;;5.88;5.30;;;;;;;;;;5096728;28;20201;-66
2022/12/08 13:55:43;;;;;;;6.82;5.88;;;;;;;;;;5097284;28;20286;-68
2022/12/08 13:58:17;;;;;;;6.25;4.95;;;;;;;;;;5097177;28;20192;-66
2022/12/08 14:00:44;;;;;;;8.25;5.25;;;;;;;;;;5096687;28;20196;-65
2022/12/08 14:03:13;;;;;;;6.85;5.65;;;;;;;;;;5096734;28;20548;-65
2022/12/08 14:05:42;;;;;;;6.93;5.22;;;;;;;;;;5096536;28;20207;-66
2022/12/08 14:08:17;;;;;;;7.75;6.35;;;;;;;;;;5096515;28;20191;-66
2022/12/08 14:10:57;;;;;;;6.32;5.50;;;;;;;;;;5096540;28;20253;-65
2022/12/08 14:13:25;;;;;;;12.10;5.72;;;;;;;;;;5096171;28;20182;-66
2022/12/08 14:15:52;;;;;;;6.10;5.50;;;;;;;;;;5096007;28;20197;-65
2022/12/08 14:18:24;;;;;;;8.32;5.68;;;;;;;;;;5095973;28;20235;-66
2022/12/08 14:21:02;;;;;;;9.20;5.32;;;;;;;;;;5079325;28;20672;-66
2022/12/08 14:23:29;;;;;;;12.68;5.70;;;;;;;;;;5073991;28;20197;-66
2022/12/08 14:25:58;;;;;;;7.32;6.13;;;;;;;;;;5075002;28;20200;-66
2022/12/08 14:28:25;;;;;;;7.15;5.75;;;;;;;;;;5074463;28;20202;-66
2022/12/08 14:30:53;;;;;;;6.78;5.50;;;;;;;;;;5075546;28;20228;-66
2022/12/08 14:33:20;;;;;;;7.88;5.93;;;;;;;;;;5074716;28;20203;-65
2022/12/08 14:35:51;;;;;;;7.47;5.60;;;;;;;;;;5075129;28;20201;-65
2022/12/08 14:38:19;;;;;;;5.18;4.68;;;;;;;;;;5075002;28;20238;-65
2022/12/08 14:40:47;;;;;;;7.30;5.15;;;;;;;;;;5075125;28;20284;-65
2022/12/08 14:43:17;;;;;;;6.90;5.32;;;;;;;;;;5074313;28;20407;-65
2022/12/08 14:45:49;;;;;;;5.60;4.82;;;;;;;;;;5075334;28;20190;-66